sensor_id;sensor_type;location;lat;lon;timestamp;pressure;altitude;pressure_sealevel;temperature;humidity
23574;BME280;11965;53.640;10.050;2023-04-25T00:01:58;100259.59;;;7.59;100.00
23574;BME280;11965;53.640;10.050;2023-04-25T00:04:25;100253.94;;;7.37;100.00
23574;BME280;11965;53.640;10.050;2023-04-25T00:06:53;100261.56;;;7.35;100.00
23574;BME280;11965;53.640;10.050;2023-04-25T00:09:20;100269.84;;;7.50;100.00
23574;BME280;11965;53.640;10.050;2023-04-25T00:11:48;100268.72;;;7.44;100.00
23574;BME280;11965;53.640;10.050;2023-04-25T00:14:15;100268.72;;;7.44;100.00
23574;BME280;11965;53.640;10.050;2023-04-25T00:16:42;100266.97;;;7.28;100.00
23574;BME280;11965;53.640;10.050;2023-04-25T00:19:09;100269.81;;;7.20;100.00
23574;BME280;11965;53.640;10.050;2023-04-25T00:21:36;100278.34;;;7.11;100.00
23574;BME280;11965;53.640;10.050;2023-04-25T00:24:06;100281.25;;;7.09;100.00
23574;BME280;11965;53.640;10.050;2023-04-25T00:26:34;100273.44;;;6.98;100.00
23574;BME280;11965;53.640;10.050;2023-04-25T00:29:03;100275.53;;;6.96;100.00
23574;BME280;11965;53.640;10.050;2023-04-25T00:31:30;100281.78;;;6.90;100.00
23574;BME280;11965;53.640;10.050;2023-04-25T00:33:57;100278.66;;;6.93;100.00
23574;BME280;11965;53.640;10.050;2023-04-25T00:36:24;100279.22;;;6.88;100.00
23574;BME280;11965;53.640;10.050;2023-04-25T00:38:52;100285.38;;;6.90;100.00
23574;BME280;11965;53.640;10.050;2023-04-25T00:41:20;100295.56;;;6.90;100.00
23574;BME280;11965;53.640;10.050;2023-04-25T00:43:48;100285.75;;;6.87;100.00
23574;BME280;11965;53.640;10.050;2023-04-25T00:46:16;100287.50;;;6.88;100.00
23574;BME280;11965;53.640;10.050;2023-04-25T00:48:43;100296.97;;;6.85;100.00
23574;BME280;11965;53.640;10.050;2023-04-25T00:51:15;100305.09;;;6.79;100.00
23574;BME280;11965;53.640;10.050;2023-04-25T00:53:44;100292.63;;;6.68;100.00
23574;BME280;11965;53.640;10.050;2023-04-25T00:56:12;100309.28;;;6.75;100.00
23574;BME280;11965;53.640;10.050;2023-04-25T00:58:40;100303.78;;;6.75;100.00
23574;BME280;11965;53.640;10.050;2023-04-25T01:01:08;100299.59;;;6.56;100.00
23574;BME280;11965;53.640;10.050;2023-04-25T01:03:39;100296.53;;;6.51;100.00
23574;BME280;11965;53.640;10.050;2023-04-25T01:06:08;100305.16;;;6.48;100.00
23574;BME280;11965;53.640;10.050;2023-04-25T01:08:37;100294.25;;;6.54;100.00
23574;BME280;11965;53.640;10.050;2023-04-25T01:11:05;100304.28;;;6.47;100.00
23574;BME280;11965;53.640;10.050;2023-04-25T01:13:33;100302.56;;;6.46;100.00
23574;BME280;11965;53.640;10.050;2023-04-25T01:16:00;100299.69;;;6.39;100.00
23574;BME280;11965;53.640;10.050;2023-04-25T01:18:28;100297.47;;;6.35;100.00
23574;BME280;11965;53.640;10.050;2023-04-25T01:21:02;100297.13;;;6.38;100.00
23574;BME280;11965;53.640;10.050;2023-04-25T01:23:33;100305.28;;;6.23;100.00
23574;BME280;11965;53.640;10.050;2023-04-25T01:26:01;100307.53;;;6.19;100.00
23574;BME280;11965;53.640;10.050;2023-04-25T01:28:29;100308.28;;;6.36;100.00
23574;BME280;11965;53.640;10.050;2023-04-25T01:31:30;100310.19;;;6.36;100.00
23574;BME280;11965;53.640;10.050;2023-04-25T01:33:58;100310.97;;;6.22;100.00
23574;BME280;11965;53.640;10.050;2023-04-25T01:36:29;100309.59;;;6.17;100.00
23574;BME280;11965;53.640;10.050;2023-04-25T01:38:56;100310.59;;;6.25;100.00
23574;BME280;11965;53.640;10.050;2023-04-25T01:41:24;100308.91;;;6.24;100.00
23574;BME280;11965;53.640;10.050;2023-04-25T01:43:51;100312.91;;;6.13;100.00
23574;BME280;11965;53.640;10.050;2023-04-25T01:46:18;100318.94;;;6.08;100.00
23574;BME280;11965;53.640;10.050;2023-04-25T01:48:45;100314.66;;;6.06;100.00
23574;BME280;11965;53.640;10.050;2023-04-25T01:51:13;100322.00;;;6.13;100.00
23574;BME280;11965;53.640;10.050;2023-04-25T01:53:42;100321.53;;;6.02;100.00
23574;BME280;11965;53.640;10.050;2023-04-25T01:56:10;100327.75;;;5.95;100.00
23574;BME280;11965;53.640;10.050;2023-04-25T01:58:38;100330.50;;;5.95;100.00
23574;BME280;11965;53.640;10.050;2023-04-25T02:01:34;100334.97;;;5.80;100.00
23574;BME280;11965;53.640;10.050;2023-04-25T02:04:27;100338.78;;;5.79;100.00
23574;BME280;11965;53.640;10.050;2023-04-25T02:06:54;100336.06;;;5.71;100.00
23574;BME280;11965;53.640;10.050;2023-04-25T02:09:23;100349.97;;;5.61;100.00
23574;BME280;11965;53.640;10.050;2023-04-25T02:12:19;100347.78;;;5.57;100.00
23574;BME280;11965;53.640;10.050;2023-04-25T02:15:09;100342.06;;;5.66;100.00
23574;BME280;11965;53.640;10.050;2023-04-25T02:17:41;100344.81;;;5.66;100.00
23574;BME280;11965;53.640;10.050;2023-04-25T02:20:09;100352.72;;;5.69;100.00
23574;BME280;11965;53.640;10.050;2023-04-25T02:22:37;100360.31;;;5.59;100.00
23574;BME280;11965;53.640;10.050;2023-04-25T02:25:07;100357.59;;;5.51;100.00
23574;BME280;11965;53.640;10.050;2023-04-25T02:27:35;100361.00;;;5.37;100.00
23574;BME280;11965;53.640;10.050;2023-04-25T02:30:02;100355.34;;;5.38;100.00
23574;BME280;11965;53.640;10.050;2023-04-25T02:32:32;100356.91;;;5.41;100.00
23574;BME280;11965;53.640;10.050;2023-04-25T02:35:00;100361.19;;;5.35;100.00
23574;BME280;11965;53.640;10.050;2023-04-25T02:37:29;100351.72;;;5.54;100.00
23574;BME280;11965;53.640;10.050;2023-04-25T02:39:56;100350.88;;;5.53;100.00
23574;BME280;11965;53.640;10.050;2023-04-25T02:42:26;100363.09;;;5.43;100.00
23574;BME280;11965;53.640;10.050;2023-04-25T02:44:53;100357.56;;;5.59;100.00
23574;BME280;11965;53.640;10.050;2023-04-25T02:47:20;100358.25;;;5.53;100.00
23574;BME280;11965;53.640;10.050;2023-04-25T02:49:49;100357.03;;;5.56;100.00
23574;BME280;11965;53.640;10.050;2023-04-25T02:52:16;100356.72;;;5.42;100.00
23574;BME280;11965;53.640;10.050;2023-04-25T02:54:46;100366.16;;;5.31;100.00
23574;BME280;11965;53.640;10.050;2023-04-25T02:57:13;100367.72;;;5.26;100.00
23574;BME280;11965;53.640;10.050;2023-04-25T02:59:42;100356.72;;;5.09;100.00
23574;BME280;11965;53.640;10.050;2023-04-25T03:02:09;100365.16;;;5.00;100.00
23574;BME280;11965;53.640;10.050;2023-04-25T03:04:36;100358.28;;;5.20;100.00
23574;BME280;11965;53.640;10.050;2023-04-25T03:07:04;100358.47;;;5.02;100.00
23574;BME280;11965;53.640;10.050;2023-04-25T03:09:31;100374.41;;;5.23;100.00
23574;BME280;11965;53.640;10.050;2023-04-25T03:49:34;100396.81;;;4.19;100.00
23574;BME280;11965;53.640;10.050;2023-04-25T03:52:02;100407.34;;;4.32;100.00
23574;BME280;11965;53.640;10.050;2023-04-25T03:54:36;100407.63;;;4.20;100.00
23574;BME280;11965;53.640;10.050;2023-04-25T03:57:15;100412.41;;;4.18;100.00
23574;BME280;11965;53.640;10.050;2023-04-25T03:59:42;100413.00;;;4.30;100.00
23574;BME280;11965;53.640;10.050;2023-04-25T04:02:12;100415.41;;;4.33;100.00
23574;BME280;11965;53.640;10.050;2023-04-25T04:04:41;100417.81;;;4.36;100.00
23574;BME280;11965;53.640;10.050;2023-04-25T04:07:10;100416.78;;;4.37;100.00
23574;BME280;11965;53.640;10.050;2023-04-25T04:09:39;100418.56;;;4.47;100.00
23574;BME280;11965;53.640;10.050;2023-04-25T04:12:11;100424.44;;;4.60;100.00
23574;BME280;11965;53.640;10.050;2023-04-25T04:14:40;100429.72;;;4.53;100.00
23574;BME280;11965;53.640;10.050;2023-04-25T04:17:07;100426.06;;;4.36;100.00
23574;BME280;11965;53.640;10.050;2023-04-25T04:19:34;100424.31;;;4.27;100.00
23574;BME280;11965;53.640;10.050;2023-04-25T04:22:16;100433.41;;;4.28;100.00
23574;BME280;11965;53.640;10.050;2023-04-25T04:24:43;100439.25;;;4.33;100.00
23574;BME280;11965;53.640;10.050;2023-04-25T04:27:13;100445.56;;;4.25;100.00
23574;BME280;11965;53.640;10.050;2023-04-25T04:30:05;100439.22;;;4.25;100.00
23574;BME280;11965;53.640;10.050;2023-04-25T04:32:37;100445.94;;;4.30;100.00
23574;BME280;11965;53.640;10.050;2023-04-25T04:35:05;100452.81;;;4.42;100.00
23574;BME280;11965;53.640;10.050;2023-04-25T04:37:36;100455.28;;;4.54;100.00
23574;BME280;11965;53.640;10.050;2023-04-25T04:40:04;100449.13;;;4.60;100.00
23574;BME280;11965;53.640;10.050;2023-04-25T04:42:52;100452.66;;;4.86;100.00
23574;BME280;11965;53.640;10.050;2023-04-25T04:45:27;100453.50;;;4.87;100.00
23574;BME280;11965;53.640;10.050;2023-04-25T04:48:09;100462.13;;;4.92;99.95
23574;BME280;11965;53.640;10.050;2023-04-25T04:50:56;100465.53;;;4.94;96.45
23574;BME280;11965;53.640;10.050;2023-04-25T04:53:44;100468.31;;;5.02;99.31
23574;BME280;11965;53.640;10.050;2023-04-25T04:56:42;100457.34;;;5.11;99.19
23574;BME280;11965;53.640;10.050;2023-04-25T04:59:21;100456.66;;;5.17;96.17
23574;BME280;11965;53.640;10.050;2023-04-25T05:02:02;100460.97;;;5.19;97.80
23574;BME280;11965;53.640;10.050;2023-04-25T05:04:46;100463.22;;;5.32;96.16
23574;BME280;11965;53.640;10.050;2023-04-25T05:07:26;100464.75;;;5.35;90.89
23574;BME280;11965;53.640;10.050;2023-04-25T05:10:21;100472.13;;;5.42;90.63
23574;BME280;11965;53.640;10.050;2023-04-25T05:13:10;100491.22;;;5.44;91.10
23574;BME280;11965;53.640;10.050;2023-04-25T05:15:56;100498.06;;;5.48;88.78
23574;BME280;11965;53.640;10.050;2023-04-25T05:18:33;100492.78;;;5.63;91.68
23574;BME280;11965;53.640;10.050;2023-04-25T05:21:20;100489.19;;;5.62;94.02
23574;BME280;11965;53.640;10.050;2023-04-25T05:24:08;100483.69;;;5.46;93.90
23574;BME280;11965;53.640;10.050;2023-04-25T05:27:02;100498.44;;;5.45;94.34
23574;BME280;11965;53.640;10.050;2023-04-25T05:29:59;100503.56;;;5.48;95.72
23574;BME280;11965;53.640;10.050;2023-04-25T05:32:31;100499.28;;;5.37;96.77
23574;BME280;11965;53.640;10.050;2023-04-25T05:34:59;100512.84;;;5.39;97.48
23574;BME280;11965;53.640;10.050;2023-04-25T05:37:31;100507.00;;;5.42;97.94
23574;BME280;11965;53.640;10.050;2023-04-25T05:40:08;100520.44;;;5.61;98.49
23574;BME280;11965;53.640;10.050;2023-04-25T05:42:39;100521.31;;;5.62;95.59
23574;BME280;11965;53.640;10.050;2023-04-25T05:45:22;100522.69;;;5.74;96.08
23574;BME280;11965;53.640;10.050;2023-04-25T05:48:04;100516.31;;;5.65;97.79
23574;BME280;11965;53.640;10.050;2023-04-25T05:51:03;100519.94;;;5.66;97.54
23574;BME280;11965;53.640;10.050;2023-04-25T05:53:59;100519.94;;;5.66;96.96
23574;BME280;11965;53.640;10.050;2023-04-25T05:56:26;100532.81;;;5.82;97.79
23574;BME280;11965;53.640;10.050;2023-04-25T05:58:56;100530.41;;;5.79;96.59
23574;BME280;11965;53.640;10.050;2023-04-25T06:01:23;100527.34;;;5.98;97.76
23574;BME280;11965;53.640;10.050;2023-04-25T06:03:50;100523.53;;;5.91;96.59
23574;BME280;11965;53.640;10.050;2023-04-25T06:06:18;100523.56;;;5.99;97.23
23574;BME280;11965;53.640;10.050;2023-04-25T06:08:46;100521.34;;;6.11;98.26
23574;BME280;11965;53.640;10.050;2023-04-25T06:11:12;100524.19;;;6.34;95.46
23574;BME280;11965;53.640;10.050;2023-04-25T06:13:39;100523.16;;;6.43;95.66
23574;BME280;11965;53.640;10.050;2023-04-25T06:16:08;100521.75;;;6.47;92.56
23574;BME280;11965;53.640;10.050;2023-04-25T06:18:35;100526.91;;;6.58;91.91
23574;BME280;11965;53.640;10.050;2023-04-25T06:21:02;100525.84;;;6.68;92.80
23574;BME280;11965;53.640;10.050;2023-04-25T06:23:29;100528.91;;;6.81;91.48
23574;BME280;11965;53.640;10.050;2023-04-25T06:26:03;100533.31;;;6.90;89.83
23574;BME280;11965;53.640;10.050;2023-04-25T06:28:31;100529.47;;;7.07;85.18
23574;BME280;11965;53.640;10.050;2023-04-25T06:30:58;100528.63;;;7.07;89.10
23574;BME280;11965;53.640;10.050;2023-04-25T06:33:26;100523.19;;;6.91;90.18
23574;BME280;11965;53.640;10.050;2023-04-25T06:35:54;100531.09;;;6.94;85.11
23574;BME280;11965;53.640;10.050;2023-04-25T06:38:25;100535.31;;;7.13;86.72
23574;BME280;11965;53.640;10.050;2023-04-25T06:40:53;100537.75;;;7.07;84.18
23574;BME280;11965;53.640;10.050;2023-04-25T06:43:20;100533.16;;;6.92;79.89
23574;BME280;11965;53.640;10.050;2023-04-25T06:45:47;100529.91;;;6.88;82.39
23574;BME280;11965;53.640;10.050;2023-04-25T06:48:15;100538.63;;;7.00;86.15
23574;BME280;11965;53.640;10.050;2023-04-25T06:50:43;100545.06;;;6.84;82.59
23574;BME280;11965;53.640;10.050;2023-04-25T06:53:11;100546.78;;;6.93;85.08
23574;BME280;11965;53.640;10.050;2023-04-25T06:55:39;100553.94;;;7.02;86.01
23574;BME280;11965;53.640;10.050;2023-04-25T06:58:14;100552.97;;;6.87;84.77
23574;BME280;11965;53.640;10.050;2023-04-25T07:01:04;100551.44;;;6.84;83.71
23574;BME280;11965;53.640;10.050;2023-04-25T07:03:31;100547.28;;;6.89;83.63
23574;BME280;11965;53.640;10.050;2023-04-25T07:06:04;100552.44;;;6.92;86.20
23574;BME280;11965;53.640;10.050;2023-04-25T07:08:31;100559.44;;;7.11;86.40
23574;BME280;11965;53.640;10.050;2023-04-25T07:10:58;100561.38;;;7.02;86.41
23574;BME280;11965;53.640;10.050;2023-04-25T07:13:25;100560.84;;;6.98;86.67
23574;BME280;11965;53.640;10.050;2023-04-25T07:15:52;100579.53;;;6.80;88.63
23574;BME280;11965;53.640;10.050;2023-04-25T07:18:20;100594.34;;;6.62;93.84
23574;BME280;11965;53.640;10.050;2023-04-25T07:20:48;100592.19;;;6.01;96.02
23574;BME280;11965;53.640;10.050;2023-04-25T07:23:17;100581.63;;;5.88;100.00
23574;BME280;11965;53.640;10.050;2023-04-25T07:25:44;100582.38;;;6.14;100.00
23574;BME280;11965;53.640;10.050;2023-04-25T07:28:12;100586.81;;;6.56;100.00
23574;BME280;11965;53.640;10.050;2023-04-25T07:30:39;100572.44;;;6.85;100.00
23574;BME280;11965;53.640;10.050;2023-04-25T07:33:06;100574.94;;;7.03;99.52
23574;BME280;11965;53.640;10.050;2023-04-25T07:35:33;100583.03;;;7.05;93.79
23574;BME280;11965;53.640;10.050;2023-04-25T07:38:01;100578.56;;;7.12;92.27
23574;BME280;11965;53.640;10.050;2023-04-25T07:40:30;100576.56;;;7.29;97.03
23574;BME280;11965;53.640;10.050;2023-04-25T07:43:02;100576.00;;;7.42;95.84
23574;BME280;11965;53.640;10.050;2023-04-25T07:45:39;100574.88;;;7.82;97.76
23574;BME280;11965;53.640;10.050;2023-04-25T07:48:06;100575.91;;;8.04;92.66
23574;BME280;11965;53.640;10.050;2023-04-25T07:50:36;100573.44;;;7.86;88.40
23574;BME280;11965;53.640;10.050;2023-04-25T07:53:03;100580.13;;;7.92;90.40
23574;BME280;11965;53.640;10.050;2023-04-25T07:55:37;100567.75;;;7.88;89.63
23574;BME280;11965;53.640;10.050;2023-04-25T07:58:14;100566.88;;;8.10;94.40
23574;BME280;11965;53.640;10.050;2023-04-25T08:00:43;100578.66;;;8.65;87.43
23574;BME280;11965;53.640;10.050;2023-04-25T08:03:36;100581.72;;;8.85;87.52
23574;BME280;11965;53.640;10.050;2023-04-25T08:06:08;100586.56;;;8.98;84.56
23574;BME280;11965;53.640;10.050;2023-04-25T08:08:47;100582.44;;;8.64;82.93
23574;BME280;11965;53.640;10.050;2023-04-25T08:11:18;100590.34;;;8.52;83.18
23574;BME280;11965;53.640;10.050;2023-04-25T08:13:45;100606.16;;;8.44;82.24
23574;BME280;11965;53.640;10.050;2023-04-25T08:16:13;100629.69;;;8.08;87.70
23574;BME280;11965;53.640;10.050;2023-04-25T08:18:40;100641.22;;;7.58;86.81
23574;BME280;11965;53.640;10.050;2023-04-25T08:21:07;100627.59;;;6.28;94.46
23574;BME280;11965;53.640;10.050;2023-04-25T08:23:37;100634.97;;;5.95;100.00
23574;BME280;11965;53.640;10.050;2023-04-25T08:26:13;100637.25;;;6.08;100.00
23574;BME280;11965;53.640;10.050;2023-04-25T08:28:43;100637.41;;;6.39;100.00
23574;BME280;11965;53.640;10.050;2023-04-25T08:31:10;100640.34;;;6.37;100.00
23574;BME280;11965;53.640;10.050;2023-04-25T08:33:47;100634.13;;;6.60;100.00
23574;BME280;11965;53.640;10.050;2023-04-25T08:36:23;100636.16;;;6.66;100.00
23574;BME280;11965;53.640;10.050;2023-04-25T08:38:50;100637.22;;;6.65;100.00
23574;BME280;11965;53.640;10.050;2023-04-25T08:41:20;100647.75;;;6.45;100.00
23574;BME280;11965;53.640;10.050;2023-04-25T08:43:51;100649.63;;;6.36;100.00
23574;BME280;11965;53.640;10.050;2023-04-25T08:46:18;100657.22;;;6.18;100.00
23574;BME280;11965;53.640;10.050;2023-04-25T08:49:04;100658.41;;;6.15;100.00
23574;BME280;11965;53.640;10.050;2023-04-25T08:51:32;100653.56;;;6.09;100.00
23574;BME280;11965;53.640;10.050;2023-04-25T08:54:08;100655.81;;;6.55;100.00
23574;BME280;11965;53.640;10.050;2023-04-25T08:56:37;100648.66;;;7.10;100.00
23574;BME280;11965;53.640;10.050;2023-04-25T08:59:07;100645.66;;;7.98;100.00
23574;BME280;11965;53.640;10.050;2023-04-25T09:01:36;100644.47;;;8.61;100.00
23574;BME280;11965;53.640;10.050;2023-04-25T09:04:03;100642.44;;;8.55;100.00
23574;BME280;11965;53.640;10.050;2023-04-25T09:06:33;100650.38;;;8.12;94.41
23574;BME280;11965;53.640;10.050;2023-04-25T09:09:06;100658.44;;;7.91;96.22
23574;BME280;11965;53.640;10.050;2023-04-25T09:11:33;100662.28;;;7.82;100.00
23574;BME280;11965;53.640;10.050;2023-04-25T09:14:13;100660.63;;;7.72;100.00
23574;BME280;11965;53.640;10.050;2023-04-25T09:16:59;100666.78;;;7.43;99.47
23574;BME280;11965;53.640;10.050;2023-04-25T09:19:37;100683.63;;;7.57;97.08
23574;BME280;11965;53.640;10.050;2023-04-25T09:22:08;100685.56;;;7.87;100.00
23574;BME280;11965;53.640;10.050;2023-04-25T09:24:37;100685.59;;;7.79;89.84
23574;BME280;11965;53.640;10.050;2023-04-25T09:27:06;100680.84;;;8.19;91.98
23574;BME280;11965;53.640;10.050;2023-04-25T09:29:36;100669.16;;;8.40;85.38
23574;BME280;11965;53.640;10.050;2023-04-25T09:32:11;100687.34;;;8.72;87.10
23574;BME280;11965;53.640;10.050;2023-04-25T09:34:40;100686.91;;;8.83;87.32
23574;BME280;11965;53.640;10.050;2023-04-25T09:37:09;100692.59;;;9.20;88.76
23574;BME280;11965;53.640;10.050;2023-04-25T09:39:57;100702.28;;;9.16;80.42
23574;BME280;11965;53.640;10.050;2023-04-25T09:42:26;100703.06;;;8.95;83.72
23574;BME280;11965;53.640;10.050;2023-04-25T09:44:56;100732.06;;;8.22;82.84
23574;BME280;11965;53.640;10.050;2023-04-25T09:47:26;100727.84;;;7.32;92.46
23574;BME280;11965;53.640;10.050;2023-04-25T09:49:55;100739.06;;;7.14;98.05
23574;BME280;11965;53.640;10.050;2023-04-25T09:52:23;100738.38;;;7.28;100.00
23574;BME280;11965;53.640;10.050;2023-04-25T09:55:01;100730.66;;;7.63;100.00
23574;BME280;11965;53.640;10.050;2023-04-25T09:57:32;100742.91;;;8.00;98.72
23574;BME280;11965;53.640;10.050;2023-04-25T10:00:02;100734.78;;;8.07;94.23
23574;BME280;11965;53.640;10.050;2023-04-25T10:02:42;100729.97;;;8.01;98.70
23574;BME280;11965;53.640;10.050;2023-04-25T10:05:21;100730.31;;;7.97;100.00
23574;BME280;11965;53.640;10.050;2023-04-25T10:07:48;100733.00;;;7.83;98.01
23574;BME280;11965;53.640;10.050;2023-04-25T10:10:16;100727.66;;;8.12;100.00
23574;BME280;11965;53.640;10.050;2023-04-25T10:12:44;100722.81;;;8.69;98.01
23574;BME280;11965;53.640;10.050;2023-04-25T10:15:15;100733.94;;;8.98;92.50
23574;BME280;11965;53.640;10.050;2023-04-25T10:17:42;100734.47;;;9.46;92.05
23574;BME280;11965;53.640;10.050;2023-04-25T10:20:10;100733.50;;;9.84;84.31
23574;BME280;11965;53.640;10.050;2023-04-25T10:22:41;100736.91;;;10.15;79.86
23574;BME280;11965;53.640;10.050;2023-04-25T10:25:09;100731.78;;;9.83;70.53
23574;BME280;11965;53.640;10.050;2023-04-25T10:27:36;100743.34;;;9.71;65.56
23574;BME280;11965;53.640;10.050;2023-04-25T10:30:05;100741.16;;;9.82;68.09
23574;BME280;11965;53.640;10.050;2023-04-25T10:32:37;100745.84;;;10.17;70.27
23574;BME280;11965;53.640;10.050;2023-04-25T10:35:12;100745.16;;;10.45;65.60
23574;BME280;11965;53.640;10.050;2023-04-25T10:37:59;100746.25;;;10.29;67.00
23574;BME280;11965;53.640;10.050;2023-04-25T10:40:27;100736.56;;;10.25;66.18
23574;BME280;11965;53.640;10.050;2023-04-25T10:42:54;100739.06;;;9.84;68.24
23574;BME280;11965;53.640;10.050;2023-04-25T10:45:22;100749.25;;;9.68;68.34
23574;BME280;11965;53.640;10.050;2023-04-25T10:47:50;100737.97;;;10.00;68.98
23574;BME280;11965;53.640;10.050;2023-04-25T10:50:17;100740.75;;;9.85;66.04
23574;BME280;11965;53.640;10.050;2023-04-25T10:52:44;100731.81;;;9.68;62.99
23574;BME280;11965;53.640;10.050;2023-04-25T10:55:11;100741.25;;;9.59;63.98
23574;BME280;11965;53.640;10.050;2023-04-25T10:57:40;100748.50;;;9.60;64.64
23574;BME280;11965;53.640;10.050;2023-04-25T11:00:17;100747.75;;;9.51;63.72
23574;BME280;11965;53.640;10.050;2023-04-25T11:02:46;100750.00;;;9.77;65.18
23574;BME280;11965;53.640;10.050;2023-04-25T11:05:23;100769.84;;;10.10;63.50
23574;BME280;11965;53.640;10.050;2023-04-25T11:07:53;100763.75;;;9.85;61.95
23574;BME280;11965;53.640;10.050;2023-04-25T11:10:25;100767.66;;;9.32;66.36
23574;BME280;11965;53.640;10.050;2023-04-25T11:12:52;100777.88;;;8.93;73.25
23574;BME280;11965;53.640;10.050;2023-04-25T11:15:19;100796.59;;;8.83;75.47
23574;BME280;11965;53.640;10.050;2023-04-25T11:17:46;100792.97;;;8.82;73.09
23574;BME280;11965;53.640;10.050;2023-04-25T11:20:14;100782.56;;;9.07;68.13
23574;BME280;11965;53.640;10.050;2023-04-25T11:22:44;100791.53;;;9.10;69.96
23574;BME280;11965;53.640;10.050;2023-04-25T11:25:13;100788.53;;;9.19;70.15
23574;BME280;11965;53.640;10.050;2023-04-25T11:27:49;100783.31;;;9.01;68.59
23574;BME280;11965;53.640;10.050;2023-04-25T11:30:17;100779.28;;;9.27;64.87
23574;BME280;11965;53.640;10.050;2023-04-25T11:32:44;100784.09;;;9.10;67.01
23574;BME280;11965;53.640;10.050;2023-04-25T11:35:13;100785.25;;;9.16;67.79
23574;BME280;11965;53.640;10.050;2023-04-25T11:37:43;100788.84;;;8.78;67.70
23574;BME280;11965;53.640;10.050;2023-04-25T11:40:11;100781.91;;;8.82;71.57
23574;BME280;11965;53.640;10.050;2023-04-25T11:42:39;100778.25;;;8.90;67.58
23574;BME280;11965;53.640;10.050;2023-04-25T11:45:10;100778.91;;;8.92;65.81
23574;BME280;11965;53.640;10.050;2023-04-25T11:47:37;100778.41;;;9.26;65.72
23574;BME280;11965;53.640;10.050;2023-04-25T11:50:06;100772.66;;;9.81;64.75
23574;BME280;11965;53.640;10.050;2023-04-25T11:52:38;100779.78;;;10.05;61.23
23574;BME280;11965;53.640;10.050;2023-04-25T11:55:09;100759.50;;;10.34;61.14
23574;BME280;11965;53.640;10.050;2023-04-25T11:57:39;100784.22;;;10.72;57.94
23574;BME280;11965;53.640;10.050;2023-04-25T12:00:09;100779.59;;;10.57;55.04
23574;BME280;11965;53.640;10.050;2023-04-25T12:02:40;100785.22;;;10.64;56.39
23574;BME280;11965;53.640;10.050;2023-04-25T12:05:08;100784.59;;;10.69;52.25
23574;BME280;11965;53.640;10.050;2023-04-25T12:07:35;100784.41;;;11.13;55.44
23574;BME280;11965;53.640;10.050;2023-04-25T12:10:09;100794.66;;;11.41;51.55
23574;BME280;11965;53.640;10.050;2023-04-25T12:12:41;100794.34;;;11.57;51.12
23574;BME280;11965;53.640;10.050;2023-04-25T12:15:11;100801.25;;;11.68;48.26
23574;BME280;11965;53.640;10.050;2023-04-25T12:17:41;100798.94;;;11.43;51.70
23574;BME280;11965;53.640;10.050;2023-04-25T12:20:10;100806.56;;;11.35;51.69
23574;BME280;11965;53.640;10.050;2023-04-25T12:22:38;100812.56;;;10.89;50.75
23574;BME280;11965;53.640;10.050;2023-04-25T12:25:11;100811.28;;;10.70;50.73
23574;BME280;11965;53.640;10.050;2023-04-25T12:27:39;100816.22;;;10.74;52.79
23574;BME280;11965;53.640;10.050;2023-04-25T12:30:08;100811.22;;;10.84;52.58
23574;BME280;11965;53.640;10.050;2023-04-25T12:32:36;100816.56;;;11.29;52.59
23574;BME280;11965;53.640;10.050;2023-04-25T12:35:04;100815.75;;;11.35;52.21
23574;BME280;11965;53.640;10.050;2023-04-25T12:37:32;100823.22;;;11.63;49.65
23574;BME280;11965;53.640;10.050;2023-04-25T12:39:58;100820.88;;;11.38;47.65
23574;BME280;11965;53.640;10.050;2023-04-25T12:42:27;100816.34;;;11.09;50.40
23574;BME280;11965;53.640;10.050;2023-04-25T12:44:54;100832.72;;;11.04;50.79
23574;BME280;11965;53.640;10.050;2023-04-25T12:47:21;100836.25;;;10.91;48.18
23574;BME280;11965;53.640;10.050;2023-04-25T12:49:48;100824.94;;;10.71;49.69
23574;BME280;11965;53.640;10.050;2023-04-25T12:52:15;100854.06;;;10.31;52.48
23574;BME280;11965;53.640;10.050;2023-04-25T12:54:41;100855.13;;;10.00;55.03
23574;BME280;11965;53.640;10.050;2023-04-25T12:57:08;100861.59;;;9.78;55.52
23574;BME280;11965;53.640;10.050;2023-04-25T12:59:38;100890.50;;;9.75;61.18
23574;BME280;11965;53.640;10.050;2023-04-25T13:02:05;100882.09;;;9.68;58.62
23574;BME280;11965;53.640;10.050;2023-04-25T13:04:32;100879.53;;;9.82;59.87
23574;BME280;11965;53.640;10.050;2023-04-25T13:06:59;100873.56;;;10.08;54.15
23574;BME280;11965;53.640;10.050;2023-04-25T13:09:26;100870.31;;;10.19;55.27
23574;BME280;11965;53.640;10.050;2023-04-25T13:11:53;100878.50;;;10.12;55.20
23574;BME280;11965;53.640;10.050;2023-04-25T13:14:20;100865.44;;;10.06;53.70
23574;BME280;11965;53.640;10.050;2023-04-25T13:16:48;100868.78;;;10.31;54.44
23574;BME280;11965;53.640;10.050;2023-04-25T13:19:15;100880.44;;;10.27;54.66
23574;BME280;11965;53.640;10.050;2023-04-25T13:21:42;100880.91;;;10.15;55.21
23574;BME280;11965;53.640;10.050;2023-04-25T13:24:09;100884.56;;;9.63;58.15
23574;BME280;11965;53.640;10.050;2023-04-25T13:26:36;100887.84;;;9.06;62.54
23574;BME280;11965;53.640;10.050;2023-04-25T13:29:03;100898.53;;;9.09;63.67
23574;BME280;11965;53.640;10.050;2023-04-25T13:31:31;100891.81;;;9.26;60.73
23574;BME280;11965;53.640;10.050;2023-04-25T13:33:59;100890.03;;;9.34;63.56
23574;BME280;11965;53.640;10.050;2023-04-25T13:36:26;100886.19;;;9.35;62.04
23574;BME280;11965;53.640;10.050;2023-04-25T13:38:53;100882.78;;;9.33;63.60
23574;BME280;11965;53.640;10.050;2023-04-25T13:41:20;100883.09;;;9.38;60.65
23574;BME280;11965;53.640;10.050;2023-04-25T13:43:47;100895.38;;;9.35;61.93